Terminal Aerodrome Forecast
Issued by NWS Wilmington, OH

Home | Current Version | Previous Version | Text Only | Print | Product List | Glossary On
Versions: 1 2 3 4 5 6 7 8 9 10 11 12 13 14 15 16 17 18 19 20 21 22
547
FTUS41 KILN 291750
TAFDAY
TAF
KDAY 291750Z 2918/3018 15005KT P6SM BKN015
     FM291900 10006KT P6SM BKN035
     FM292200 06008KT P6SM SCT045
     FM300400 08008KT P6SM VCSH BKN045
     FM300800 15007KT P6SM SCT060
     FM301300 17012G20KT P6SM SCT080
     FM301500 19017G25KT P6SM SCT100=

USA.gov is the U.S. government's official web portal to all federal, state and local government web resources and services.